C47 weather

Portage Municipal Airport
Portage, Wisconsin, United States

Public forecast

Using degrees Fahrenheit for public forecast. Weather courtesy of forecast.io.

METAR (pilot weather report)

Closest report is Baraboo Wisconsin Dells Airport, 12.7 nm (23.5 km) W. Retrieved 2019/09/23 10:35 UTC (0 seconds ago):

KDLL 231035Z AUTO 27004KT 10SM CLR 11/11 A2996 RMK AO2 T01050105

TAF (pilot weather forecast)

Closest forecast is Dane County Regional Truax Field, 26.0 nm (48.2 km) SSE. Retrieved 2019/09/23 06:22 UTC (4 hours ago):

TAF KMSN 230520Z 2306/2406 32005KT P6SM FEW015 BKN045 OVC080 FM230900 28006KT P6SM SCT250 FM231600 29010G18KT P6SM FEW040 FEW250 FM232300 29010KT P6SM FEW040 FEW250 FM240500 00000KT 6SM BR FEW200